Time;durP1;ratioP1;P1;durP2;ratioP2;P2;SDS_P1;SDS_P2;PMS_P1;PMS_P2;Temp;Humidity;BMP_temperature;BMP_pressure;BME280_temperature;BME280_humidity;BME280_pressure;Samples;Min_cycle;Max_cycle;Signal;HPM_P1;HPM_P2
2023/09/10 00:01:45;;;;;;;38.60;34.60;;;;;;;20.32;100.00;101588.66;5051372;28;20107;-64
2023/09/10 00:04:10;;;;;;;39.38;35.35;;;;;;;20.30;100.00;101589.03;5051254;28;20052;-64
2023/09/10 00:06:36;;;;;;;39.90;35.80;;;;;;;20.32;100.00;101592.28;5051373;28;20033;-64
2023/09/10 00:09:03;;;;;;;38.10;34.25;;;;;;;20.35;100.00;101591.56;5051875;28;20024;-64
2023/09/10 00:11:28;;;;;;;39.25;35.22;;;;;;;20.35;100.00;101590.78;5051626;28;20036;-64
2023/09/10 00:13:54;;;;;;;38.67;34.90;;;;;;;20.32;100.00;101581.03;5051340;28;20024;-64
2023/09/10 00:16:19;;;;;;;39.22;35.25;;;;;;;20.32;100.00;101586.66;5062361;28;20419;-63
2023/09/10 00:18:44;;;;;;;39.70;35.75;;;;;;;20.31;100.00;101585.03;5056804;28;20452;-63
2023/09/10 00:21:09;;;;;;;39.20;35.25;;;;;;;20.32;100.00;101586.66;5071150;28;20032;-64
2023/09/10 00:23:35;;;;;;;40.15;36.25;;;;;;;20.32;100.00;101586.66;5071053;28;20025;-63
2023/09/10 00:26:00;;;;;;;40.30;36.13;;;;;;;20.30;100.00;101589.03;5071188;28;20111;-63
2023/09/10 00:28:25;;;;;;;40.88;36.65;;;;;;;20.31;100.00;101582.22;5061652;28;20430;-64
2023/09/10 00:30:54;;;;;;;41.85;37.60;;;;;;;20.30;100.00;101580.59;5062192;28;20052;-64
2023/09/10 00:33:20;;;;;;;41.85;37.45;;;;;;;20.22;100.00;101576.75;5059464;28;20031;-63
2023/09/10 00:35:45;;;;;;;41.70;37.30;;;;;;;20.24;100.00;101577.22;5050839;28;20179;-64
2023/09/10 00:38:11;;;;;;;40.67;36.60;;;;;;;20.23;100.00;101578.38;5050993;28;20025;-64
2023/09/10 00:40:36;;;;;;;41.40;36.97;;;;;;;20.20;100.00;101581.09;5051087;28;20025;-65
2023/09/10 00:43:01;;;;;;;41.03;36.92;;;;;;;20.20;100.00;101578.28;5050837;28;20036;-64
2023/09/10 00:45:27;;;;;;;42.10;37.97;;;;;;;20.18;100.00;101573.00;5050968;28;20033;-65
2023/09/10 00:47:53;;;;;;;43.33;38.85;;;;;;;20.12;100.00;101571.63;5051029;28;20033;-64
2023/09/10 00:50:18;;;;;;;42.55;38.35;;;;;;;20.11;100.00;101572.78;5062308;28;20081;-64
2023/09/10 00:52:49;;;;;;;42.20;37.90;;;;;;;20.10;100.00;101571.16;5070895;28;20472;-64
2023/09/10 00:55:15;;;;;;;42.05;37.60;;;;;;;20.11;100.00;101567.16;5071264;28;20108;-63
2023/09/10 00:57:40;;;;;;;44.63;39.47;;;;;;;20.08;100.00;101571.50;5064645;28;20029;-63
2023/09/10 01:00:08;;;;;;;43.08;38.72;;;;;;;20.10;100.00;101569.19;5063698;28;20119;-63
2023/09/10 01:02:34;;;;;;;42.22;38.05;;;;;;;20.07;100.00;101569.88;5050664;28;20392;-64
2023/09/10 01:05:00;;;;;;;43.67;39.30;;;;;;;20.03;100.00;101582.16;5061682;28;20025;-63
2023/09/10 01:07:25;;;;;;;44.38;39.92;;;;;;;19.93;100.00;101580.66;5070641;28;20438;-65
2023/09/10 01:09:50;;;;;;;43.33;38.95;;;;;;;19.97;100.00;101586.41;5070732;28;20036;-64
2023/09/10 01:12:35;;;;;;;43.55;39.17;;;;;;;19.92;100.00;101579.03;5070832;28;20030;-63
2023/09/10 01:15:32;;;;;;;42.72;38.22;;;;;;;19.86;100.00;101572.84;5070508;28;20085;-63
2023/09/10 01:18:08;;;;;;;43.60;39.30;;;;;;;19.81;100.00;101575.84;5065802;28;20037;-63
2023/09/10 01:20:51;;;;;;;44.40;39.70;;;;;;;19.81;100.00;101578.63;5051749;28;20028;-63
2023/09/10 01:23:22;;;;;;;45.65;41.22;;;;;;;19.78;100.00;101579.38;5070324;28;20512;-63
2023/09/10 01:25:47;;;;;;;45.53;41.13;;;;;;;19.72;100.00;101575.13;5070666;28;20025;-64
2023/09/10 01:28:13;;;;;;;45.53;40.92;;;;;;;19.68;100.00;101580.63;5058727;28;20078;-64
2023/09/10 01:30:38;;;;;;;45.38;40.90;;;;;;;19.71;100.00;101576.31;5050511;28;20052;-64
2023/09/10 01:33:18;;;;;;;45.80;40.95;;;;;;;19.66;100.00;101582.97;5050691;28;20118;-65
2023/09/10 01:35:58;;;;;;;45.65;41.15;;;;;;;19.58;100.00;101586.72;5050462;28;20082;-63
2023/09/10 01:38:35;;;;;;;45.15;40.75;;;;;;;19.58;100.00;101584.75;5050359;28;20068;-62
2023/09/10 01:41:08;;;;;;;43.65;39.30;;;;;;;19.59;100.00;101588.34;5050716;28;20025;-63
2023/09/10 01:43:34;;;;;;;45.30;40.80;;;;;;;19.58;100.00;101583.91;5050764;28;20037;-63
2023/09/10 01:46:02;;;;;;;46.83;42.08;;;;;;;19.55;100.00;101591.03;5052096;28;20032;-64
2023/09/10 01:48:27;;;;;;;45.00;40.42;;;;;;;19.57;100.00;101588.72;5054164;28;20063;-65
2023/09/10 01:50:54;;;;;;;47.55;42.92;;;;;;;19.54;100.00;101588.59;5063815;28;20472;-64
2023/09/10 01:53:19;;;;;;;46.25;41.85;;;;;;;19.54;100.00;101588.59;5074222;28;20024;-64
2023/09/10 01:55:44;;;;;;;47.47;42.63;;;;;;;19.48;100.00;101585.19;5056899;28;20044;-64
2023/09/10 01:58:12;;;;;;;46.85;42.28;;;;;;;19.47;100.00;101592.78;5054122;28;20544;-65
2023/09/10 02:00:38;;;;;;;46.83;42.10;;;;;;;19.48;100.00;101593.63;5068851;28;20497;-64
2023/09/10 02:03:04;;;;;;;46.33;41.72;;;;;;;19.47;100.00;101589.19;5074047;28;20021;-64
2023/09/10 02:05:30;;;;;;;47.17;42.47;;;;;;;19.47;100.00;101594.78;5074218;28;20032;-64
2023/09/10 02:07:55;;;;;;;46.80;42.25;;;;;;;19.47;100.00;101591.97;5066804;28;20056;-63
2023/09/10 02:10:20;;;;;;;48.55;43.67;;;;;;;19.46;100.00;101591.16;5058518;28;20052;-63
2023/09/10 02:12:45;;;;;;;48.35;43.53;;;;;;;19.45;100.00;101597.13;5070466;28;20082;-63
2023/09/10 02:15:11;;;;;;;46.95;42.25;;;;;;;19.47;100.00;101594.78;5055437;28;20040;-62
2023/09/10 02:17:37;;;;;;;48.80;44.22;;;;;;;19.43;100.00;101591.88;5072725;28;20077;-62
2023/09/10 02:20:09;;;;;;;48.50;43.90;;;;;;;19.42;100.00;101595.00;5053113;28;20733;-63
2023/09/10 02:22:35;;;;;;;47.95;43.25;;;;;;;19.45;100.00;101595.16;5062651;28;20496;-64
2023/09/10 02:25:00;;;;;;;48.53;43.72;;;;;;;19.44;100.00;101596.31;5053519;28;20036;-63
2023/09/10 02:27:26;;;;;;;50.08;45.28;;;;;;;19.40;100.00;101597.34;5069248;28;20029;-63
2023/09/10 02:29:51;;;;;;;49.55;44.55;;;;;;;19.41;100.00;101594.19;5073335;28;20021;-63
2023/09/10 02:32:16;;;;;;;50.03;44.75;;;;;;;19.36;100.00;101591.63;5073455;28;20024;-64
2023/09/10 02:34:41;;;;;;;48.05;43.17;;;;;;;19.38;100.00;101594.06;5073199;28;20040;-64
2023/09/10 02:37:07;;;;;;;50.78;45.78;;;;;;;19.32;100.00;101597.09;5073452;28;20028;-64
2023/09/10 02:39:32;;;;;;;50.28;45.17;;;;;;;19.29;100.00;101594.16;5073776;28;20337;-63
2023/09/10 02:41:57;;;;;;;50.10;45.20;;;;;;;19.28;100.00;101598.97;5073591;28;20495;-64
2023/09/10 02:44:23;;;;;;;49.70;44.78;;;;;;;19.28;100.00;101593.34;5073334;28;20112;-64
2023/09/10 02:46:48;;;;;;;50.65;45.58;;;;;;;19.30;100.00;101593.00;5073650;28;20054;-64
2023/09/10 02:49:13;;;;;;;49.70;45.00;;;;;;;19.26;100.00;101604.09;5073475;28;20460;-64
2023/09/10 02:51:39;;;;;;;50.83;45.85;;;;;;;19.24;100.00;101595.22;5059927;28;20892;-65
2023/09/10 02:54:04;;;;;;;51.75;46.50;;;;;;;19.21;100.00;101595.94;5072443;28;20534;-64
2023/09/10 02:56:30;;;;;;;51.58;46.42;;;;;;;19.18;100.00;101602.22;5069164;28;20039;-65
2023/09/10 02:58:55;;;;;;;51.58;46.53;;;;;;;19.18;100.00;101600.22;5053147;28;20140;-65
2023/09/10 03:01:20;;;;;;;53.42;48.10;;;;;;;19.11;100.00;101599.16;5056066;28;20028;-64
2023/09/10 03:03:46;;;;;;;53.10;47.97;;;;;;;19.09;100.00;101598.69;5073123;28;20035;-64
2023/09/10 03:06:15;;;;;;;52.22;47.22;;;;;;;19.11;100.00;101602.78;5066819;28;20107;-65
2023/09/10 03:08:42;;;;;;;54.00;48.65;;;;;;;19.10;100.00;101603.94;5058570;28;20029;-64
2023/09/10 03:11:08;;;;;;;53.70;48.20;;;;;;;19.12;100.00;101600.81;5067772;28;20028;-65
2023/09/10 03:13:34;;;;;;;54.75;49.45;;;;;;;19.11;100.00;101601.97;5072485;28;20480;-65
2023/09/10 03:15:59;;;;;;;54.90;49.55;;;;;;;19.08;100.00;101603.47;5072538;28;20067;-65
2023/09/10 03:18:24;;;;;;;55.63;50.20;;;;;;;19.11;100.00;101601.97;5072457;28;20020;-65
2023/09/10 03:20:50;;;;;;;56.00;50.38;;;;;;;19.05;100.00;101598.56;5063831;28;20075;-65
2023/09/10 03:23:15;;;;;;;55.05;49.65;;;;;;;19.01;100.00;101594.81;5052461;28;20079;-64
2023/09/10 03:25:40;;;;;;;56.13;50.58;;;;;;;18.98;100.00;101595.50;5050885;28;20086;-65
2023/09/10 03:28:06;;;;;;;56.58;50.97;;;;;;;18.97;100.00;101594.69;5052175;28;20037;-64
2023/09/10 03:30:32;;;;;;;57.75;52.05;;;;;;;18.93;100.00;101592.91;5051774;28;20120;-64
2023/09/10 03:32:57;;;;;;;55.45;49.97;;;;;;;18.92;100.00;101585.63;5050843;28;20115;-65
2023/09/10 03:35:22;;;;;;;57.85;52.22;;;;;;;18.88;100.00;101587.50;5050449;28;20028;-65
2023/09/10 03:37:48;;;;;;;54.95;49.58;;;;;;;18.89;100.00;101583.53;5053648;28;20143;-65
2023/09/10 03:40:14;;;;;;;57.67;52.17;;;;;;;18.83;100.00;101585.75;5070929;28;20060;-65
2023/09/10 03:42:39;;;;;;;58.10;52.22;;;;;;;18.81;100.00;101588.06;5070372;28;20129;-66
2023/09/10 03:45:06;;;;;;;58.30;52.40;;;;;;;18.75;100.00;101581.84;5061805;28;20111;-65
2023/09/10 03:47:33;;;;;;;56.70;51.08;;;;;;;18.80;100.00;101590.03;5066343;28;20025;-64
2023/09/10 03:49:59;;;;;;;55.97;50.55;;;;;;;18.84;100.00;101590.19;5059671;28;20100;-65
2023/09/10 03:52:24;;;;;;;58.95;53.15;;;;;;;18.80;100.00;101581.63;5071886;28;20116;-65
2023/09/10 03:54:49;;;;;;;56.92;51.40;;;;;;;18.83;100.00;101585.75;5069245;28;20036;-65
2023/09/10 03:57:15;;;;;;;57.85;52.25;;;;;;;18.80;100.00;101581.63;5061227;28;20182;-64
2023/09/10 03:59:40;;;;;;;56.20;50.60;;;;;;;18.80;100.00;101578.00;5065312;28;20037;-66
2023/09/10 04:02:06;;;;;;;57.42;51.88;;;;;;;18.79;100.00;101581.97;5063287;28;20024;-65
2023/09/10 04:04:32;;;;;;;57.97;52.38;;;;;;;18.76;100.00;101580.69;5071853;28;20462;-64
2023/09/10 04:06:57;;;;;;;57.35;51.72;;;;;;;18.77;100.00;101575.88;5059655;28;20086;-65
2023/09/10 04:09:24;;;;;;;57.22;51.67;;;;;;;18.76;100.00;101571.44;5060877;28;20075;-64
2023/09/10 04:11:49;;;;;;;56.53;51.03;;;;;;;18.74;100.00;101577.41;5057115;28;20107;-64
2023/09/10 04:14:15;;;;;;;57.63;51.97;;;;;;;18.73;100.00;101578.56;5056778;28;20035;-64
2023/09/10 04:16:40;;;;;;;56.38;50.65;;;;;;;18.74;100.00;101571.00;5051437;28;20028;-66
2023/09/10 04:19:05;;;;;;;57.30;51.60;;;;;;;18.72;100.00;101571.31;5051838;28;20420;-65
2023/09/10 04:21:31;;;;;;;57.28;51.58;;;;;;;18.73;100.00;101564.53;5051524;28;20040;-65
2023/09/10 04:23:56;;;;;;;58.20;52.25;;;;;;;18.68;100.00;101571.19;5051490;28;20021;-65
2023/09/10 04:26:21;;;;;;;58.42;52.72;;;;;;;18.67;100.00;101574.34;5051579;28;20031;-65
2023/09/10 04:28:46;;;;;;;57.78;52.00;;;;;;;18.67;100.00;101568.72;5051286;28;20395;-66
2023/09/10 04:31:13;;;;;;;58.47;52.63;;;;;;;18.64;100.00;101567.44;5051190;28;20535;-66
2023/09/10 04:33:39;;;;;;;57.97;52.25;;;;;;;18.64;100.00;101561.84;5051435;28;20071;-64
2023/09/10 04:36:04;;;;;;;57.75;52.13;;;;;;;18.63;100.00;101573.38;5051175;28;20457;-65
2023/09/10 04:38:29;;;;;;;58.92;53.08;;;;;;;18.59;100.00;101573.25;5051410;28;20385;-65
2023/09/10 04:40:55;;;;;;;59.88;53.97;;;;;;;18.56;100.00;101582.38;5049791;28;20036;-65
2023/09/10 04:43:21;;;;;;;60.25;54.35;;;;;;;18.54;100.00;101563.06;5051274;28;20044;-64
2023/09/10 04:45:46;;;;;;;58.80;53.10;;;;;;;18.53;100.00;101567.03;5051088;28;20025;-64
2023/09/10 04:48:13;;;;;;;58.80;52.90;;;;;;;18.53;100.00;101569.03;5050848;28;20067;-64
2023/09/10 04:50:39;;;;;;;60.50;54.50;;;;;;;18.54;100.00;101567.88;5051017;28;20040;-64
2023/09/10 04:53:04;;;;;;;60.25;54.35;;;;;;;18.49;100.00;101563.28;5052349;28;20037;-64
2023/09/10 04:55:30;;;;;;;59.85;53.78;;;;;;;18.54;100.00;101576.28;5071054;28;20115;-64
2023/09/10 04:57:55;;;;;;;60.63;54.75;;;;;;;18.55;100.00;101572.31;5070912;28;20025;-63
2023/09/10 05:00:20;;;;;;;61.85;55.75;;;;;;;18.52;100.00;101571.00;5070825;28;20404;-63
2023/09/10 05:02:46;;;;;;;61.75;55.50;;;;;;;18.52;100.00;101579.41;5070693;28;20209;-63
2023/09/10 05:05:11;;;;;;;61.08;54.88;;;;;;;18.54;100.00;101574.28;5070938;28;20025;-64
2023/09/10 05:07:36;;;;;;;61.08;55.13;;;;;;;18.53;100.00;101571.84;5056141;28;20025;-66
2023/09/10 05:10:02;;;;;;;62.92;56.83;;;;;;;18.51;100.00;101577.78;5051517;28;20053;-65
2023/09/10 05:12:27;;;;;;;61.80;55.70;;;;;;;18.51;100.00;101579.75;5069288;28;20031;-65
2023/09/10 05:14:53;;;;;;;60.60;54.72;;;;;;;18.54;100.00;101579.88;5069069;28;20365;-64
2023/09/10 05:17:18;;;;;;;62.60;56.22;;;;;;;18.55;100.00;101581.53;5070744;28;20025;-65
2023/09/10 05:19:44;;;;;;;59.78;53.92;;;;;;;18.59;100.00;101587.25;5058275;28;20024;-65
2023/09/10 05:22:10;;;;;;;64.65;58.20;;;;;;;18.57;100.00;101594.38;5064112;28;20021;-65
2023/09/10 05:24:35;;;;;;;60.30;54.05;;;;;;;18.62;100.00;101591.34;5074301;28;20028;-65
2023/09/10 05:27:01;;;;;;;61.83;55.75;;;;;;;18.64;100.00;101594.63;5074265;28;20032;-65
2023/09/10 05:29:26;;;;;;;65.40;58.70;;;;;;;18.62;100.00;101585.75;5074356;28;20063;-64
2023/09/10 05:31:52;;;;;;;68.72;61.92;;;;;;;18.62;100.00;101595.00;5071786;28;20044;-64
2023/09/10 05:34:17;;;;;;;62.60;56.45;;;;;;;18.64;100.00;101592.66;5054584;28;20047;-64
2023/09/10 05:36:43;;;;;;;59.85;53.83;;;;;;;18.67;100.00;101593.97;5054300;28;20021;-64
2023/09/10 05:39:08;;;;;;;67.20;60.22;;;;;;;18.67;100.00;101591.97;5061787;28;20090;-65
2023/09/10 05:41:34;;;;;;;66.88;60.15;;;;;;;18.67;100.00;101599.56;5074681;28;20095;-63
2023/09/10 05:43:59;;;;;;;65.03;58.53;;;;;;;18.68;100.00;101592.81;5074457;28;20052;-64
2023/09/10 05:46:24;;;;;;;64.10;57.58;;;;;;;18.68;100.00;101595.59;5054076;28;20036;-63
2023/09/10 05:48:50;;;;;;;64.18;57.85;;;;;;;18.74;100.00;101596.22;5053987;28;20112;-63
2023/09/10 05:51:15;;;;;;;64.82;58.33;;;;;;;18.75;100.00;101595.06;5053864;28;20124;-62
2023/09/10 05:53:42;;;;;;;64.88;58.38;;;;;;;18.79;100.00;101594.00;5053885;28;20098;-63
2023/09/10 05:56:08;;;;;;;66.15;59.40;;;;;;;18.83;100.00;101594.94;5054105;28;20037;-65
2023/09/10 05:58:34;;;;;;;63.17;56.97;;;;;;;18.91;100.00;101601.66;5053848;28;20036;-63
2023/09/10 06:00:59;;;;;;;64.60;57.85;;;;;;;18.98;100.00;101595.50;5059997;28;20050;-65
2023/09/10 06:03:24;;;;;;;62.45;56.17;;;;;;;19.05;100.00;101597.72;5073867;28;20145;-65
2023/09/10 06:05:49;;;;;;;61.92;55.72;;;;;;;19.10;100.00;101605.94;5073724;28;20063;-66
2023/09/10 06:08:15;;;;;;;60.97;54.97;;;;;;;19.15;100.00;101609.34;5064754;28;20025;-65
2023/09/10 06:10:40;;;;;;;62.63;56.13;;;;;;;19.21;100.00;101607.16;5065312;28;20033;-66
2023/09/10 06:13:05;;;;;;;63.53;56.97;;;;;;;19.24;100.00;101609.22;5068550;28;20504;-64
2023/09/10 06:15:31;;;;;;;62.53;56.20;;;;;;;19.28;100.00;101617.75;5073338;28;20539;-63
2023/09/10 06:17:56;;;;;;;64.65;58.05;;;;;;;19.32;100.00;101613.13;5053641;28;20063;-64
2023/09/10 06:20:22;;;;;;;68.43;61.58;;;;;;;19.37;100.00;101620.50;5069838;28;20040;-64
2023/09/10 06:22:47;;;;;;;69.07;62.00;;;;;;;19.41;100.00;101611.03;5067260;28;20020;-63
2023/09/10 06:25:13;;;;;;;64.65;58.20;;;;;;;19.48;100.00;101614.06;5072264;28;20036;-63
2023/09/10 06:27:38;;;;;;;63.83;57.15;;;;;;;19.59;100.00;101619.22;5073635;28;20455;-64
2023/09/10 06:30:04;;;;;;;62.65;56.30;;;;;;;19.64;100.00;101614.22;5073422;28;20036;-62
2023/09/10 06:32:29;;;;;;;63.88;57.38;;;;;;;19.68;100.00;101619.94;5073289;28;20127;-65
2023/09/10 06:34:55;;;;;;;61.67;55.63;;;;;;;19.81;100.00;101612.31;5072168;28;20093;-64
2023/09/10 06:37:20;;;;;;;63.80;57.40;;;;;;;19.86;100.00;101619.72;5073539;28;20024;-63
2023/09/10 06:39:45;;;;;;;65.47;58.63;;;;;;;19.93;100.00;101622.78;5057382;28;20044;-64
2023/09/10 06:42:12;;;;;;;59.63;53.63;;;;;;;20.01;100.00;101621.84;5053454;28;20035;-64
2023/09/10 06:44:38;;;;;;;61.53;55.40;;;;;;;20.10;100.00;101621.69;5065335;28;20052;-64
2023/09/10 06:47:04;;;;;;;63.00;56.60;;;;;;;20.14;100.00;101625.47;5062982;28;20052;-64
2023/09/10 06:49:30;;;;;;;61.08;54.97;;;;;;;20.22;100.00;101632.09;5073107;28;20032;-65
2023/09/10 06:51:56;;;;;;;61.53;55.40;;;;;;;20.31;100.00;101629.16;5073188;28;20021;-63
2023/09/10 06:54:23;;;;;;;61.95;55.88;;;;;;;20.35;100.00;101619.66;5073129;28;20391;-63
2023/09/10 06:56:48;;;;;;;61.65;55.40;;;;;;;20.38;100.00;101630.22;5072487;28;20025;-64
2023/09/10 06:59:14;;;;;;;61.17;55.08;;;;;;;20.46;100.00;101633.22;5051501;28;20035;-64
2023/09/10 07:01:39;;;;;;;61.78;55.60;;;;;;;20.49;100.00;101629.72;5057858;28;20362;-64
2023/09/10 07:04:19;;;;;;;60.67;54.42;;;;;;;20.60;100.00;101627.22;5072325;28;20056;-65
2023/09/10 07:06:49;;;;;;;59.30;53.22;;;;;;;20.73;100.00;101629.66;5056203;28;20052;-64
2023/09/10 07:09:22;;;;;;;60.42;54.17;;;;;;;20.80;100.00;101636.66;5051891;28;20071;-64
2023/09/10 07:11:52;;;;;;;62.03;55.85;;;;;;;20.88;100.00;101632.88;5052112;28;20168;-65
2023/09/10 07:14:18;;;;;;;60.97;54.75;;;;;;;20.96;100.00;101633.91;5052358;28;20476;-65
2023/09/10 07:16:44;;;;;;;58.13;52.28;;;;;;;21.06;100.00;101635.41;5057522;28;20029;-64
2023/09/10 07:19:11;;;;;;;59.90;53.92;;;;;;;21.10;100.00;101634.31;5049917;28;20433;-64
2023/09/10 07:21:36;;;;;;;61.10;55.00;;;;;;;21.14;100.00;101640.84;5050389;28;20060;-64
2023/09/10 07:24:06;;;;;;;60.10;54.22;;;;;;;21.25;100.00;101643.97;5060029;28;20581;-64
2023/09/10 07:26:31;;;;;;;60.10;54.35;;;;;;;21.34;100.00;101636.19;5056957;28;20043;-64
2023/09/10 07:28:57;;;;;;;58.78;52.88;;;;;;;21.44;100.00;101639.63;5062310;28;20024;-64
2023/09/10 07:31:22;;;;;;;59.78;53.67;;;;;;;21.48;100.00;101641.34;5061865;28;20076;-64
2023/09/10 07:33:47;;;;;;;59.88;54.15;;;;;;;21.54;100.00;101644.69;5061876;28;20029;-65
2023/09/10 07:36:13;;;;;;;58.78;53.00;;;;;;;21.61;100.00;101635.66;5059382;28;20039;-66
2023/09/10 07:38:38;;;;;;;58.60;52.70;;;;;;;21.72;100.00;101645.19;5048656;28;20025;-64
2023/09/10 07:41:04;;;;;;;57.63;51.65;;;;;;;21.77;100.00;101635.66;5055750;28;20127;-64
2023/09/10 07:43:29;;;;;;;56.85;51.20;;;;;;;21.87;100.00;101637.13;5055469;28;20108;-64
2023/09/10 07:45:55;;;;;;;53.85;48.33;;;;;;;21.96;100.00;101637.75;5060688;28;20056;-64
2023/09/10 07:48:20;;;;;;;58.22;52.33;;;;;;;22.02;100.00;101639.09;5060002;28;20056;-63
2023/09/10 07:50:56;;;;;;;55.63;50.03;;;;;;;22.09;100.00;101639.25;5056282;28;20469;-64
2023/09/10 07:53:22;;;;;;;55.70;50.17;;;;;;;22.15;100.00;101641.78;5054517;28;20051;-65
2023/09/10 07:55:47;;;;;;;54.22;48.97;;;;;;;22.24;100.00;101643.22;5051107;28;20032;-64
2023/09/10 07:58:13;;;;;;;55.38;50.05;;;;;;;22.33;100.00;101645.84;5050912;28;20112;-65
2023/09/10 08:00:39;;;;;;;56.00;50.20;;;;;;;22.42;100.00;101645.66;5051053;28;20025;-65
2023/09/10 08:03:06;;;;;;;55.90;50.40;;;;;;;22.52;100.00;101644.25;5051231;28;20033;-66
2023/09/10 08:05:31;;;;;;;55.08;49.42;;;;;;;22.63;100.00;101647.31;5051472;28;20106;-64
2023/09/10 08:08:02;;;;;;;53.83;48.42;;;;;;;22.71;100.00;101651.91;5069831;28;20491;-65
2023/09/10 08:10:32;;;;;;;54.38;48.75;;;;;;;22.85;100.00;101655.03;5071093;28;20117;-65
2023/09/10 08:12:58;;;;;;;53.25;47.88;;;;;;;22.93;100.00;101655.19;5071037;28;20111;-65
2023/09/10 08:15:23;;;;;;;52.65;47.47;;;;;;;23.02;100.00;101659.38;5058571;28;20121;-63
2023/09/10 08:17:55;;;;;;;51.80;46.70;;;;;;;23.06;100.00;101649.00;5053871;28;20052;-64
2023/09/10 08:20:21;;;;;;;49.53;44.72;;;;;;;23.19;100.00;101655.31;5055720;28;20039;-64
2023/09/10 08:22:46;;;;;;;48.97;44.00;;;;;;;23.29;100.00;101653.88;5055360;28;20438;-64
2023/09/10 08:25:12;;;;;;;47.67;42.88;;;;;;;23.40;99.57;101654.09;5059174;28;20095;-64
2023/09/10 08:27:37;;;;;;;49.15;44.08;;;;;;;23.52;99.21;101644.63;5055584;28;20697;-64
2023/09/10 08:30:05;;;;;;;48.92;43.92;;;;;;;23.57;98.88;101644.28;5069907;28;20028;-63
2023/09/10 08:32:34;;;;;;;48.20;43.20;;;;;;;23.68;98.66;101648.13;5064374;28;20093;-64
2023/09/10 08:34:59;;;;;;;47.13;42.42;;;;;;;23.74;97.69;101642.16;5059465;28;20061;-64
2023/09/10 08:37:25;;;;;;;48.22;43.35;;;;;;;23.81;98.05;101639.47;5064051;28;20491;-65
2023/09/10 08:39:50;;;;;;;46.15;41.72;;;;;;;23.94;98.01;101637.22;5059242;28;20136;-64
2023/09/10 08:42:18;;;;;;;45.92;41.22;;;;;;;24.03;97.70;101640.63;5050358;28;20025;-65
2023/09/10 08:44:49;;;;;;;46.20;41.33;;;;;;;24.12;97.45;101635.53;5064131;28;20480;-65
2023/09/10 08:47:17;;;;;;;46.15;40.30;;;;;;;24.22;96.03;101642.56;5050146;28;20032;-63
2023/09/10 08:49:46;;;;;;;44.47;39.75;;;;;;;24.33;96.43;101647.53;5057895;28;20078;-65
2023/09/10 08:52:12;;;;;;;45.33;40.72;;;;;;;24.44;96.87;101646.50;5068406;28;20044;-64
2023/09/10 08:54:37;;;;;;;44.58;38.38;;;;;;;24.50;95.31;101649.81;5055484;28;20067;-66
2023/09/10 08:57:04;;;;;;;41.42;37.20;;;;;;;24.65;94.41;101650.81;5071270;28;20024;-66
2023/09/10 08:59:30;;;;;;;42.15;37.67;;;;;;;24.80;95.15;101648.19;5074044;28;20024;-64
2023/09/10 09:01:56;;;;;;;39.63;35.47;;;;;;;24.91;93.00;101643.47;5073669;28;20414;-65
2023/09/10 09:04:23;;;;;;;39.92;35.65;;;;;;;25.03;92.61;101646.00;5074087;28;20021;-65
2023/09/10 09:06:53;;;;;;;39.85;35.40;;;;;;;25.15;93.05;101641.28;5074104;28;20060;-65
2023/09/10 09:09:22;;;;;;;41.20;36.90;;;;;;;25.31;92.29;101643.88;5073886;28;20044;-65
2023/09/10 09:11:49;;;;;;;35.83;31.92;;;;;;;25.40;91.56;101641.56;5073777;28;20082;-65
2023/09/10 09:14:15;;;;;;;38.75;34.65;;;;;;;25.52;90.76;101638.47;5072615;28;20029;-65
2023/09/10 09:16:42;;;;;;;37.08;33.08;;;;;;;25.67;90.34;101636.56;5073805;28;20491;-65
2023/09/10 09:19:14;;;;;;;37.72;33.83;;;;;;;25.78;89.90;101635.84;5072308;28;20471;-65
2023/09/10 09:21:41;;;;;;;35.22;31.52;;;;;;;25.84;89.74;101632.22;5074073;28;20036;-66
2023/09/10 09:24:09;;;;;;;34.90;30.15;;;;;;;25.97;88.79;101631.94;5073510;28;20024;-65
2023/09/10 09:26:36;;;;;;;34.83;30.40;;;;;;;26.04;87.17;101637.63;5073535;28;20111;-65
2023/09/10 09:29:02;;;;;;;32.40;27.60;;;;;;;26.17;88.34;101632.47;5073759;28;20107;-65
2023/09/10 09:31:28;;;;;;;32.65;29.15;;;;;;;26.29;86.87;101637.81;5074019;28;20045;-65
2023/09/10 09:33:53;;;;;;;34.75;30.20;;;;;;;26.34;87.27;101641.50;5073830;28;20025;-66
2023/09/10 09:36:24;;;;;;;32.70;29.00;;;;;;;26.42;87.76;101632.63;5073360;28;20036;-64
2023/09/10 09:38:49;;;;;;;31.45;28.05;;;;;;;26.49;86.77;101634.69;5073081;28;20372;-65
2023/09/10 09:41:16;;;;;;;34.75;29.70;;;;;;;26.66;85.68;101633.16;5073625;28;20028;-65
2023/09/10 09:43:41;;;;;;;32.50;25.40;;;;;;;26.83;85.24;101639.31;5071985;28;20352;-65
2023/09/10 09:46:07;;;;;;;31.10;27.08;;;;;;;26.85;84.77;101626.34;5073055;28;20027;-65
2023/09/10 09:48:33;;;;;;;31.10;25.10;;;;;;;26.92;84.06;101634.88;5067809;28;20025;-66
2023/09/10 09:50:59;;;;;;;29.08;25.00;;;;;;;27.02;82.51;101627.63;5057376;28;20025;-65
2023/09/10 09:53:26;;;;;;;29.23;24.00;;;;;;;27.09;82.51;101624.78;5063176;28;20029;-68
2023/09/10 09:56:00;;;;;;;29.75;23.27;;;;;;;27.25;83.72;101613.06;5057090;28;20041;-66
2023/09/10 09:58:25;;;;;;;29.98;25.20;;;;;;;27.28;81.96;101622.00;5064115;28;20116;-66
2023/09/10 10:00:51;;;;;;;32.13;26.77;;;;;;;27.35;81.64;101617.09;5052625;28;20927;-68
2023/09/10 10:03:18;;;;;;;28.60;23.65;;;;;;;27.40;81.00;101615.91;5052667;28;20091;-68
2023/09/10 10:05:47;;;;;;;28.15;23.88;;;;;;;27.48;81.15;101614.75;5057408;28;20029;-67
2023/09/10 10:08:15;;;;;;;28.08;23.23;;;;;;;27.45;79.08;101618.38;5055103;28;20110;-67
2023/09/10 10:10:48;;;;;;;28.95;21.67;;;;;;;27.55;80.08;101614.72;5053119;28;20032;-68
2023/09/10 10:13:18;;;;;;;26.73;21.30;;;;;;;27.68;78.79;101612.28;5058791;28;20070;-67
2023/09/10 10:15:48;;;;;;;26.55;21.50;;;;;;;27.75;77.19;101608.63;5072627;28;20620;-64
2023/09/10 10:18:18;;;;;;;27.67;23.25;;;;;;;27.80;77.61;101610.25;5072202;28;20181;-65
2023/09/10 10:20:49;;;;;;;27.05;20.85;;;;;;;27.92;78.33;101611.84;5062662;28;20039;-67
2023/09/10 10:23:15;;;;;;;25.88;19.08;;;;;;;28.08;78.00;101602.94;5052418;28;20025;-66
2023/09/10 10:25:42;;;;;;;26.73;19.27;;;;;;;28.20;77.53;101611.00;5057521;28;20035;-65
2023/09/10 10:28:09;;;;;;;25.17;17.88;;;;;;;28.31;75.73;101605.28;5072069;28;20016;-65
2023/09/10 10:30:38;;;;;;;25.80;18.80;;;;;;;28.37;76.59;101600.78;5071789;28;20044;-68
2023/09/10 10:33:08;;;;;;;26.30;18.63;;;;;;;28.43;73.45;101602.00;5071910;28;20033;-66
2023/09/10 10:35:40;;;;;;;24.80;19.00;;;;;;;28.50;75.46;101592.59;5071960;28;20036;-66
2023/09/10 10:38:08;;;;;;;25.83;19.52;;;;;;;28.49;75.48;101599.53;5071032;28;20070;-66
2023/09/10 10:40:43;;;;;;;25.63;19.27;;;;;;;28.57;74.90;101597.47;5072178;28;20046;-66
2023/09/10 10:43:12;;;;;;;25.15;18.65;;;;;;;28.66;73.92;101597.81;5072277;28;20047;-68
2023/09/10 10:45:39;;;;;;;24.50;17.55;;;;;;;28.70;74.52;101597.81;5072021;28;20078;-65
2023/09/10 10:48:11;;;;;;;24.38;18.00;;;;;;;28.75;73.20;101595.38;5072466;28;20032;-65
2023/09/10 10:50:38;;;;;;;23.17;16.13;;;;;;;28.83;70.54;101599.00;5071568;28;20396;-65
2023/09/10 10:53:09;;;;;;;26.83;16.25;;;;;;;28.94;70.18;101591.19;5069115;28;20073;-65
2023/09/10 10:55:35;;;;;;;22.50;15.45;;;;;;;29.07;69.51;101593.53;5060125;28;20037;-66
2023/09/10 10:58:01;;;;;;;24.20;16.88;;;;;;;29.08;70.49;101592.31;5070506;28;20522;-66
2023/09/10 11:00:28;;;;;;;24.67;16.98;;;;;;;29.09;70.64;101591.09;5070648;28;20122;-65
2023/09/10 11:03:11;;;;;;;23.67;15.32;;;;;;;29.04;69.77;101583.81;5070654;28;20112;-66